EDXW/GWT METAR and TAF weather

Enter ICAO airport designator
Station Type Date Time Source
EDXW METAR 2021/03/08 15:50 UTC NOAA

EDXW 081550Z 17006KT CAVOK 03/M05 Q1022


Station Type Date Time Source
EDXW Decoded METAR 2021/03/08 15:50 UTC NOAA

Westerland / Sylt, Germany (EDXW) 54-55N 008-21E 20M
Mar 08, 2021 - 10:50 AM EST / 2021.03.08 1550 UTC
Wind: from the S (170 degrees) at 7 MPH (6 KT):0
Visibility: greater than 7 mile(s):0
Temperature: 37 F (3 C)
Dew Point: 23 F (-5 C)
Relative Humidity: 55%
Pressure (altimeter): 30.18 in. Hg (1022 hPa)
ob: EDXW 081550Z 17006KT CAVOK 03/M05 Q1022
cycle: 16

Station Type Date Time Source
EDXW TAF 2009/07/07 14:00 UTC NOAA

TAF EDXW 071400Z 0715/0719 22015G25KT 9999 SCT020

Example: see airport list